createdAt,value
2023-10-24T00:01:55.095Z,9.69
2023-10-24T00:04:22.273Z,9.72
2023-10-24T00:06:49.030Z,9.69
2023-10-24T00:09:15.967Z,9.77
2023-10-24T00:11:42.686Z,9.72
2023-10-24T00:14:09.553Z,9.79
2023-10-24T00:16:36.341Z,9.81
2023-10-24T00:19:03.363Z,9.80
2023-10-24T00:21:30.030Z,9.87
2023-10-24T00:23:56.938Z,9.80
2023-10-24T00:26:23.715Z,9.85
2023-10-24T00:28:50.604Z,9.84
2023-10-24T00:31:17.335Z,9.86
2023-10-24T00:33:44.313Z,9.82
2023-10-24T00:36:11.069Z,9.91
2023-10-24T00:38:38.008Z,9.94
2023-10-24T00:41:04.720Z,9.88
2023-10-24T00:43:31.832Z,9.72
2023-10-24T00:45:58.675Z,9.82
2023-10-24T00:48:25.674Z,9.84
2023-10-24T00:50:52.362Z,9.92
2023-10-24T00:53:19.598Z,9.94
2023-10-24T00:55:47.136Z,9.88
2023-10-24T00:58:14.750Z,9.94
2023-10-24T01:00:43.466Z,9.90
2023-10-24T01:03:10.809Z,9.92
2023-10-24T01:05:38.431Z,9.97
2023-10-24T01:08:05.619Z,10.04
2023-10-24T01:10:32.304Z,9.98
2023-10-24T01:12:59.325Z,9.98
2023-10-24T01:15:26.020Z,9.96
2023-10-24T01:17:53.976Z,10.05
2023-10-24T01:20:20.881Z,9.99
2023-10-24T01:22:48.168Z,10.00
2023-10-24T01:25:15.662Z,10.01
2023-10-24T01:27:44.559Z,10.04
2023-10-24T01:30:12.739Z,9.92
2023-10-24T01:32:39.775Z,10.05
2023-10-24T01:35:08.163Z,10.10
2023-10-24T01:37:36.459Z,10.10
2023-10-24T01:40:05.210Z,10.08
2023-10-24T01:42:32.248Z,10.06
2023-10-24T01:44:58.872Z,10.11
2023-10-24T01:47:25.824Z,10.12
2023-10-24T01:49:52.480Z,10.17
2023-10-24T01:52:19.426Z,10.19
2023-10-24T01:54:46.121Z,10.13
2023-10-24T01:57:13.228Z,10.21
2023-10-24T01:59:39.884Z,10.21
2023-10-24T02:02:06.962Z,10.14
2023-10-24T02:04:33.827Z,10.18
2023-10-24T02:07:00.712Z,10.29
2023-10-24T02:09:30.732Z,10.30
2023-10-24T02:12:00.002Z,10.32
2023-10-24T02:14:26.653Z,10.34
2023-10-24T02:16:53.733Z,10.34
2023-10-24T02:19:20.558Z,10.39
2023-10-24T02:21:47.593Z,10.43
2023-10-24T02:24:14.656Z,10.47
2023-10-24T02:26:41.679Z,10.49
2023-10-24T02:29:08.385Z,10.49
2023-10-24T02:31:35.415Z,10.50
2023-10-24T02:34:02.151Z,10.43
2023-10-24T02:36:29.047Z,10.47
2023-10-24T02:38:55.736Z,10.44
2023-10-24T02:41:23.319Z,10.43
2023-10-24T02:43:50.040Z,10.44
2023-10-24T02:46:17.189Z,10.38
2023-10-24T02:48:43.945Z,10.53
2023-10-24T02:51:10.975Z,10.55
2023-10-24T02:53:37.616Z,10.58
2023-10-24T02:56:04.824Z,10.60
2023-10-24T02:58:31.678Z,10.61
2023-10-24T03:01:06.163Z,10.64
2023-10-24T03:03:33.925Z,10.61
2023-10-24T03:06:01.050Z,10.59
2023-10-24T03:08:27.917Z,10.56
2023-10-24T03:10:54.883Z,10.59
2023-10-24T03:13:21.580Z,10.59
2023-10-24T03:15:48.572Z,10.56
2023-10-24T03:18:15.359Z,10.58
2023-10-24T03:20:42.441Z,10.49
2023-10-24T03:23:10.468Z,10.57
2023-10-24T03:25:42.358Z,10.54
2023-10-24T03:28:09.292Z,10.52
2023-10-24T03:30:36.299Z,10.52
2023-10-24T03:33:04.039Z,10.52
2023-10-24T03:35:33.625Z,10.51
2023-10-24T03:38:00.587Z,10.46
2023-10-24T03:40:27.988Z,10.46
2023-10-24T03:42:54.892Z,10.41
2023-10-24T03:45:22.076Z,10.39
2023-10-24T03:47:50.093Z,10.44
2023-10-24T03:50:17.324Z,10.42
2023-10-24T03:52:44.219Z,10.39
2023-10-24T03:55:12.615Z,10.31
2023-10-24T03:57:42.335Z,10.37
2023-10-24T04:00:09.730Z,10.36
2023-10-24T04:02:37.456Z,10.39
2023-10-24T04:05:04.840Z,10.39
2023-10-24T04:07:31.680Z,10.34
2023-10-24T04:09:58.756Z,10.43
2023-10-24T04:12:25.504Z,10.43
2023-10-24T04:14:52.430Z,10.42
2023-10-24T04:17:19.210Z,10.39
2023-10-24T04:19:46.552Z,10.39
2023-10-24T04:22:13.456Z,10.40
2023-10-24T04:24:40.642Z,10.35
2023-10-24T04:27:08.675Z,10.38
2023-10-24T04:29:35.717Z,10.36
2023-10-24T04:32:02.504Z,10.33
2023-10-24T04:34:29.632Z,10.36
2023-10-24T04:36:57.850Z,10.26
2023-10-24T04:39:25.607Z,10.15
2023-10-24T04:41:52.302Z,10.11
2023-10-24T04:44:19.409Z,10.19
2023-10-24T04:46:46.593Z,10.18
2023-10-24T04:49:13.632Z,10.16
2023-10-24T04:51:40.335Z,10.04
2023-10-24T04:54:08.080Z,10.15
2023-10-24T04:56:34.842Z,10.23
2023-10-24T04:59:02.428Z,10.32
2023-10-24T05:01:29.107Z,10.34
2023-10-24T05:03:56.106Z,10.21
2023-10-24T05:06:22.841Z,10.29
2023-10-24T05:08:49.841Z,10.28
2023-10-24T05:11:16.499Z,10.31
2023-10-24T05:13:43.461Z,10.29
2023-10-24T05:16:10.168Z,10.29
2023-10-24T05:18:37.123Z,10.29
2023-10-24T05:21:04.366Z,10.29
2023-10-24T05:23:31.350Z,10.24
2023-10-24T05:25:58.041Z,10.23
2023-10-24T05:28:25.101Z,10.22
2023-10-24T05:30:51.876Z,10.12
2023-10-24T05:33:19.008Z,10.18
2023-10-24T05:35:49.229Z,10.17
2023-10-24T05:38:16.272Z,10.15
2023-10-24T05:40:45.728Z,10.16
2023-10-24T05:43:12.837Z,10.15
2023-10-24T05:45:39.513Z,10.21
2023-10-24T05:48:06.541Z,10.19
2023-10-24T05:50:34.891Z,10.19
2023-10-24T05:53:01.980Z,10.20
2023-10-24T05:55:28.718Z,10.18
2023-10-24T05:57:55.773Z,10.24
2023-10-24T06:00:23.897Z,10.26
2023-10-24T06:02:50.889Z,10.25
2023-10-24T06:05:17.743Z,10.25
2023-10-24T06:07:44.758Z,10.29
2023-10-24T06:10:11.554Z,10.26
2023-10-24T06:12:38.501Z,10.28
2023-10-24T06:15:06.563Z,10.27
2023-10-24T06:17:34.507Z,10.15
2023-10-24T06:20:01.365Z,10.21
2023-10-24T06:22:29.588Z,10.25
2023-10-24T06:24:57.871Z,10.18
2023-10-24T06:27:24.834Z,10.12
2023-10-24T06:29:51.498Z,10.27
2023-10-24T06:32:18.494Z,10.24
2023-10-24T06:34:45.290Z,10.29
2023-10-24T06:37:13.171Z,10.24
2023-10-24T06:39:40.193Z,10.26
2023-10-24T06:42:07.279Z,10.38
2023-10-24T06:44:33.949Z,10.33
2023-10-24T06:47:01.102Z,10.35
2023-10-24T06:49:28.041Z,10.39
2023-10-24T06:51:55.173Z,10.47
2023-10-24T06:54:21.890Z,10.50
2023-10-24T06:56:48.850Z,10.58
2023-10-24T06:59:15.477Z,10.61
2023-10-24T07:01:42.440Z,10.68
2023-10-24T07:04:09.421Z,10.72
2023-10-24T07:06:36.367Z,10.57
2023-10-24T07:09:03.197Z,10.70
2023-10-24T07:11:30.302Z,10.68
2023-10-24T07:13:57.075Z,10.75
2023-10-24T07:16:24.149Z,10.76
2023-10-24T07:18:50.874Z,10.79
2023-10-24T07:21:18.170Z,10.88
2023-10-24T07:23:44.894Z,10.83
2023-10-24T07:26:12.183Z,10.81
2023-10-24T07:28:38.949Z,10.95
2023-10-24T07:31:05.953Z,10.97
2023-10-24T07:33:32.588Z,11.05
2023-10-24T07:36:09.457Z,11.11
2023-10-24T07:38:36.218Z,11.19
2023-10-24T07:41:04.114Z,11.18
2023-10-24T07:43:31.011Z,11.21
2023-10-24T07:45:57.958Z,11.16
2023-10-24T07:48:25.054Z,11.18
2023-10-24T07:50:58.794Z,11.20
2023-10-24T07:53:26.988Z,11.19
2023-10-24T07:55:54.397Z,11.17
2023-10-24T07:58:21.420Z,11.33
2023-10-24T08:00:48.853Z,11.25
2023-10-24T08:03:16.537Z,11.24
2023-10-24T08:05:43.633Z,11.27
2023-10-24T08:08:10.356Z,11.25
2023-10-24T08:10:37.332Z,11.24
2023-10-24T08:13:04.092Z,11.33
2023-10-24T08:15:31.052Z,11.27
2023-10-24T08:17:58.168Z,11.15
2023-10-24T08:20:25.244Z,11.09
2023-10-24T08:22:52.745Z,11.07
2023-10-24T08:25:19.800Z,11.06
2023-10-24T08:27:47.663Z,11.10
2023-10-24T08:30:14.694Z,11.12
2023-10-24T08:32:41.558Z,11.05
2023-10-24T08:35:09.912Z,11.06
2023-10-24T08:37:36.895Z,11.07
2023-10-24T08:40:04.550Z,11.05
2023-10-24T08:42:31.844Z,11.12
2023-10-24T08:45:01.015Z,11.18
2023-10-24T08:47:29.423Z,11.13
2023-10-24T08:49:57.777Z,11.26
2023-10-24T08:52:30.992Z,11.30
2023-10-24T08:55:05.146Z,11.40
2023-10-24T08:57:37.906Z,11.41
2023-10-24T09:00:05.535Z,11.49
2023-10-24T09:02:32.412Z,11.49
2023-10-24T09:04:59.550Z,11.60
2023-10-24T09:07:26.329Z,11.71
2023-10-24T09:09:53.257Z,11.73
2023-10-24T09:12:22.279Z,11.87
2023-10-24T09:14:54.525Z,11.97
2023-10-24T09:17:24.385Z,11.92
2023-10-24T09:19:52.414Z,11.96
2023-10-24T09:22:19.260Z,11.94
2023-10-24T09:24:50.599Z,12.03
2023-10-24T09:27:18.291Z,12.01
2023-10-24T09:29:50.085Z,12.03
2023-10-24T09:32:17.350Z,11.93
2023-10-24T09:34:46.064Z,12.04
2023-10-24T09:37:14.503Z,12.07
2023-10-24T09:39:58.359Z,12.06
2023-10-24T09:42:30.989Z,12.14
2023-10-24T09:45:01.708Z,12.18
2023-10-24T09:47:28.919Z,12.09
2023-10-24T09:49:57.428Z,12.07
2023-10-24T09:52:25.625Z,11.93
2023-10-24T09:54:55.401Z,11.85
2023-10-24T09:57:23.462Z,11.77
2023-10-24T09:59:58.076Z,11.85
2023-10-24T10:02:25.652Z,11.85
2023-10-24T10:04:53.160Z,11.93
2023-10-24T10:07:21.917Z,11.99
2023-10-24T10:09:52.503Z,11.93
2023-10-24T10:12:19.619Z,11.83
2023-10-24T10:15:24.126Z,11.91
2023-10-24T10:17:58.809Z,11.87
2023-10-24T10:20:34.866Z,11.87
2023-10-24T10:23:20.549Z,11.89
2023-10-24T10:26:23.887Z,11.86
2023-10-24T10:28:59.658Z,11.96
2023-10-24T10:32:36.602Z,12.01
2023-10-24T10:34:51.546Z,11.82
2023-10-24T10:37:18.805Z,11.96
2023-10-24T10:40:25.399Z,11.98
2023-10-24T10:42:52.538Z,11.99
2023-10-24T10:45:32.518Z,12.13
2023-10-24T10:48:01.161Z,12.18
2023-10-24T10:50:32.233Z,12.14
2023-10-24T10:53:11.543Z,12.29
2023-10-24T10:55:53.343Z,12.39
2023-10-24T10:58:24.403Z,12.62
2023-10-24T11:00:54.116Z,12.82
2023-10-24T11:03:32.405Z,12.81
2023-10-24T11:06:08.574Z,12.76
2023-10-24T11:08:35.592Z,12.76
2023-10-24T11:11:02.464Z,12.85
2023-10-24T11:13:43.117Z,12.98
2023-10-24T11:16:25.319Z,13.02
2023-10-24T11:18:57.835Z,13.01
2023-10-24T11:21:24.767Z,13.07
2023-10-24T11:23:52.137Z,13.15
2023-10-24T11:26:18.793Z,13.22
2023-10-24T11:28:46.142Z,13.45
2023-10-24T11:31:23.741Z,13.55
2023-10-24T11:33:50.994Z,13.56
2023-10-24T11:36:17.757Z,13.60
2023-10-24T11:38:45.685Z,13.41
2023-10-24T11:41:12.372Z,13.26
2023-10-24T11:43:39.389Z,13.21
2023-10-24T11:46:06.219Z,13.00
2023-10-24T11:48:33.283Z,12.89
2023-10-24T11:51:03.836Z,12.81
2023-10-24T11:53:31.527Z,12.81
2023-10-24T11:55:58.347Z,12.85
2023-10-24T11:58:32.557Z,12.92
2023-10-24T12:01:00.146Z,12.94
2023-10-24T12:03:28.439Z,12.97
2023-10-24T12:05:56.861Z,12.98
2023-10-24T12:08:26.895Z,13.03
2023-10-24T12:10:55.135Z,12.96
2023-10-24T12:13:26.121Z,12.98
2023-10-24T12:15:53.096Z,12.96
2023-10-24T12:18:20.218Z,12.98
2023-10-24T12:20:47.026Z,12.91
2023-10-24T12:23:14.077Z,12.90
2023-10-24T12:25:40.847Z,12.77
2023-10-24T12:28:07.876Z,12.85
2023-10-24T12:30:34.631Z,12.79
2023-10-24T12:33:01.799Z,12.71
2023-10-24T12:35:28.536Z,12.71
2023-10-24T12:37:55.570Z,12.55
2023-10-24T12:40:22.351Z,12.65
2023-10-24T12:42:49.249Z,12.65
2023-10-24T12:45:15.925Z,12.59
2023-10-24T12:47:43.163Z,12.60
2023-10-24T12:50:10.215Z,12.59
2023-10-24T12:52:37.305Z,12.70
2023-10-24T12:55:04.354Z,12.71
2023-10-24T12:57:31.535Z,12.73
2023-10-24T12:59:58.656Z,12.72
2023-10-24T13:02:25.895Z,12.86
2023-10-24T13:04:52.883Z,12.90
2023-10-24T13:07:20.361Z,12.87
2023-10-24T13:09:47.083Z,12.89
2023-10-24T13:12:14.240Z,12.90
2023-10-24T13:14:40.970Z,12.88
2023-10-24T13:17:15.223Z,12.89
2023-10-24T13:19:44.097Z,12.80
2023-10-24T13:22:11.466Z,12.74
2023-10-24T13:24:38.799Z,12.94
2023-10-24T13:27:07.079Z,12.85
2023-10-24T13:29:34.228Z,12.91
2023-10-24T13:32:03.074Z,12.92
2023-10-24T13:37:00.403Z,12.90
2023-10-24T13:39:27.253Z,12.81
2023-10-24T13:41:54.404Z,12.91
2023-10-24T13:44:21.352Z,12.93
2023-10-24T13:46:48.406Z,12.85
2023-10-24T13:49:15.493Z,12.86
2023-10-24T13:51:42.537Z,12.69
2023-10-24T13:54:09.196Z,12.79
2023-10-24T13:56:36.334Z,12.79
2023-10-24T13:59:03.073Z,12.87
2023-10-24T14:01:30.370Z,12.76
2023-10-24T14:03:57.168Z,12.73
2023-10-24T14:06:24.302Z,12.67
2023-10-24T14:08:51.115Z,12.67
2023-10-24T14:11:18.171Z,12.63
2023-10-24T14:13:45.042Z,12.57
2023-10-24T14:16:12.342Z,12.61
2023-10-24T14:18:39.062Z,12.59
2023-10-24T14:21:06.369Z,12.57
2023-10-24T14:23:33.334Z,12.66
2023-10-24T14:26:02.046Z,12.61
2023-10-24T14:28:29.633Z,12.37
2023-10-24T14:30:56.674Z,12.61
2023-10-24T14:33:23.803Z,12.65
2023-10-24T14:35:51.256Z,12.42
2023-10-24T14:38:17.974Z,12.44
2023-10-24T14:40:45.855Z,12.34
2023-10-24T14:43:12.582Z,12.33
2023-10-24T14:45:39.936Z,12.28
2023-10-24T14:48:08.066Z,12.34
2023-10-24T14:50:35.269Z,12.37
2023-10-24T14:53:02.054Z,12.27
2023-10-24T14:55:29.130Z,12.29
2023-10-24T14:57:55.859Z,12.24
2023-10-24T15:00:22.814Z,12.20
2023-10-24T15:02:49.537Z,12.23
2023-10-24T15:05:16.725Z,12.23
2023-10-24T15:07:43.519Z,12.14
2023-10-24T15:10:10.868Z,12.14
2023-10-24T15:12:37.606Z,12.03
2023-10-24T15:15:05.035Z,12.18
2023-10-24T15:17:31.908Z,12.20
2023-10-24T15:20:02.046Z,12.25
2023-10-24T15:22:28.872Z,12.21
2023-10-24T15:24:58.164Z,12.23
2023-10-24T15:27:25.149Z,12.23
2023-10-24T15:29:55.362Z,12.20
2023-10-24T15:32:25.992Z,12.10
2023-10-24T15:34:53.144Z,12.13
2023-10-24T15:37:20.008Z,12.07
2023-10-24T15:39:47.719Z,12.03
2023-10-24T15:42:14.478Z,12.07
2023-10-24T15:44:41.654Z,11.91
2023-10-24T15:47:08.601Z,12.00
2023-10-24T15:49:35.704Z,11.94
2023-10-24T15:52:02.635Z,11.99
2023-10-24T15:54:29.839Z,12.04
2023-10-24T15:56:56.813Z,11.86
2023-10-24T15:59:23.839Z,11.89
2023-10-24T16:01:51.092Z,11.91
2023-10-24T16:04:18.257Z,11.91
2023-10-24T16:06:45.026Z,11.85
2023-10-24T16:09:12.045Z,11.82
2023-10-24T16:11:38.787Z,11.84
2023-10-24T16:14:05.800Z,11.82
2023-10-24T16:16:32.606Z,11.85
2023-10-24T16:19:01.844Z,11.83
2023-10-24T16:21:28.514Z,11.86
2023-10-24T16:23:55.460Z,11.85
2023-10-24T16:26:22.644Z,11.81
2023-10-24T16:28:49.810Z,11.75
2023-10-24T16:31:16.472Z,11.81
2023-10-24T16:33:43.456Z,11.78
2023-10-24T16:36:10.258Z,11.82
2023-10-24T16:38:37.218Z,11.85
2023-10-24T16:41:03.997Z,11.82
2023-10-24T16:43:31.145Z,11.86
2023-10-24T16:45:58.701Z,11.78
2023-10-24T16:48:25.888Z,11.70
2023-10-24T16:50:56.615Z,11.77
2023-10-24T16:53:24.442Z,11.80
2023-10-24T16:55:55.996Z,11.79
2023-10-24T16:58:23.209Z,11.86
2023-10-24T17:00:50.064Z,11.81
2023-10-24T17:03:17.723Z,11.82
2023-10-24T17:05:45.476Z,11.88
2023-10-24T17:08:13.034Z,11.81
2023-10-24T17:10:43.372Z,11.80
2023-10-24T17:13:11.241Z,11.68
2023-10-24T17:15:37.975Z,11.71
2023-10-24T17:18:05.036Z,11.72
2023-10-24T17:20:34.713Z,11.77
2023-10-24T17:23:02.550Z,11.73
2023-10-24T17:25:29.924Z,11.69
2023-10-24T17:27:57.219Z,11.73
2023-10-24T17:30:25.781Z,11.70
2023-10-24T17:32:54.365Z,11.78
2023-10-24T17:35:21.196Z,11.80
2023-10-24T17:37:48.318Z,11.82
2023-10-24T17:40:15.281Z,11.65
2023-10-24T17:42:44.154Z,11.69
2023-10-24T17:45:13.073Z,11.67
2023-10-24T17:47:40.104Z,11.67
2023-10-24T17:50:07.544Z,11.64
2023-10-24T17:52:34.659Z,11.52
2023-10-24T17:55:01.400Z,11.71
2023-10-24T17:57:28.618Z,11.67
2023-10-24T17:59:57.218Z,11.69
2023-10-24T18:02:24.388Z,11.63
2023-10-24T18:04:51.156Z,11.63
2023-10-24T18:09:48.420Z,11.60
2023-10-24T18:12:15.400Z,11.58
2023-10-24T18:14:42.312Z,11.62
2023-10-24T18:17:09.451Z,11.58
2023-10-24T18:19:36.144Z,11.55
2023-10-24T18:22:03.239Z,11.60
2023-10-24T18:24:30.401Z,11.69
2023-10-24T18:26:57.495Z,11.64
2023-10-24T18:29:24.247Z,11.59
2023-10-24T18:31:51.379Z,11.63
2023-10-24T18:34:18.165Z,11.54
2023-10-24T18:36:45.164Z,11.63
2023-10-24T18:39:11.828Z,11.66
2023-10-24T18:41:38.865Z,11.58
2023-10-24T18:44:09.026Z,11.67
2023-10-24T18:46:36.138Z,11.58
2023-10-24T18:49:03.189Z,11.59
2023-10-24T18:51:30.128Z,11.62
2023-10-24T18:53:56.869Z,11.60
2023-10-24T18:56:23.855Z,11.63
2023-10-24T18:58:50.488Z,11.68
2023-10-24T19:01:20.636Z,11.71
2023-10-24T19:03:47.602Z,11.68
2023-10-24T19:06:14.771Z,11.71
2023-10-24T19:08:41.500Z,11.73
2023-10-24T19:11:08.803Z,11.67
2023-10-24T19:13:37.622Z,11.68
2023-10-24T19:16:05.735Z,11.69
2023-10-24T19:18:33.284Z,11.72
2023-10-24T19:21:00.669Z,11.86
2023-10-24T19:23:27.650Z,11.96
2023-10-24T19:25:55.121Z,11.91
2023-10-24T19:28:21.977Z,11.92
2023-10-24T19:30:49.192Z,11.95
2023-10-24T19:33:16.160Z,11.99
2023-10-24T19:35:43.924Z,11.99
2023-10-24T19:38:11.354Z,11.94
2023-10-24T19:40:39.315Z,11.99
2023-10-24T19:43:06.482Z,12.06
2023-10-24T19:45:34.041Z,11.98
2023-10-24T19:48:13.199Z,12.04
2023-10-24T19:50:40.449Z,12.07
2023-10-24T19:53:07.472Z,12.06
2023-10-24T19:55:34.756Z,12.03
2023-10-24T19:58:02.245Z,12.12
2023-10-24T20:00:33.327Z,12.10
2023-10-24T20:03:00.421Z,12.16
2023-10-24T20:05:28.192Z,12.10
2023-10-24T20:07:58.880Z,12.19
2023-10-24T20:11:41.684Z,12.21
2023-10-24T20:13:18.340Z,12.23
2023-10-24T20:15:47.254Z,12.23
2023-10-24T20:18:14.173Z,12.17
2023-10-24T20:20:41.425Z,12.25
2023-10-24T20:23:08.456Z,12.25
2023-10-24T20:25:35.636Z,12.18
2023-10-24T20:28:02.408Z,12.24
2023-10-24T20:30:30.241Z,12.23
2023-10-24T20:32:57.269Z,12.24
2023-10-24T20:35:27.759Z,12.24
2023-10-24T20:37:55.874Z,12.09
2023-10-24T20:40:23.705Z,12.20
2023-10-24T20:42:51.603Z,12.19
2023-10-24T20:45:18.946Z,12.18
2023-10-24T20:47:47.378Z,12.18
2023-10-24T20:50:14.547Z,12.17
2023-10-24T20:52:41.293Z,12.13
2023-10-24T20:55:08.617Z,12.18
2023-10-24T20:57:35.293Z,12.15
2023-10-24T21:00:02.526Z,12.18
2023-10-24T21:02:29.274Z,12.24
2023-10-24T21:04:56.236Z,12.20
2023-10-24T21:07:22.904Z,12.20
2023-10-24T21:09:49.886Z,12.21
2023-10-24T21:12:16.878Z,12.20
2023-10-24T21:14:43.929Z,12.19
2023-10-24T21:17:10.641Z,12.21
2023-10-24T21:19:37.589Z,12.23
2023-10-24T21:22:04.518Z,12.24
2023-10-24T21:24:31.773Z,12.20
2023-10-24T21:26:59.046Z,12.28
2023-10-24T21:29:28.275Z,12.28
2023-10-24T21:31:56.090Z,12.24
2023-10-24T21:34:23.615Z,12.26
2023-10-24T21:36:50.430Z,12.24
2023-10-24T21:39:17.480Z,12.24
2023-10-24T21:41:44.150Z,12.27
2023-10-24T21:44:11.134Z,12.27
2023-10-24T21:46:37.950Z,12.27
2023-10-24T21:49:05.015Z,12.20
2023-10-24T21:51:31.715Z,12.19
2023-10-24T21:53:58.739Z,12.25
2023-10-24T21:56:25.368Z,12.24
2023-10-24T21:58:52.326Z,12.22
2023-10-24T22:01:19.555Z,12.18
2023-10-24T22:03:47.073Z,12.20
2023-10-24T22:06:14.048Z,12.23
2023-10-24T22:08:41.215Z,12.24
2023-10-24T22:11:08.043Z,12.22
2023-10-24T22:13:35.056Z,12.20
2023-10-24T22:16:02.197Z,12.17
2023-10-24T22:18:29.647Z,12.18
2023-10-24T22:20:57.626Z,12.16
2023-10-24T22:23:25.009Z,12.19
2023-10-24T22:25:53.258Z,12.23
2023-10-24T22:28:20.826Z,12.22
2023-10-24T22:30:47.699Z,12.17
2023-10-24T22:33:14.767Z,12.20
2023-10-24T22:35:41.946Z,12.19
2023-10-24T22:38:08.864Z,12.23
2023-10-24T22:40:35.501Z,12.25
2023-10-24T22:43:02.507Z,12.26
2023-10-24T22:45:29.285Z,12.22
2023-10-24T22:47:56.244Z,12.25
2023-10-24T22:50:22.888Z,12.22
2023-10-24T22:52:51.329Z,12.15
2023-10-24T22:55:18.449Z,12.21
2023-10-24T22:57:46.121Z,12.04
2023-10-24T23:00:13.734Z,12.11
2023-10-24T23:02:41.004Z,12.14
2023-10-24T23:05:08.364Z,12.14
2023-10-24T23:07:35.413Z,12.10
2023-10-24T23:10:02.933Z,11.99
2023-10-24T23:12:31.701Z,12.06
2023-10-24T23:14:59.083Z,12.12
2023-10-24T23:17:25.999Z,12.10
2023-10-24T23:19:52.628Z,12.11
2023-10-24T23:22:19.541Z,12.05
2023-10-24T23:24:46.348Z,12.07
2023-10-24T23:27:13.782Z,12.06
2023-10-24T23:29:40.662Z,12.04
2023-10-24T23:32:07.710Z,12.04
2023-10-24T23:34:34.369Z,12.01
2023-10-24T23:37:01.311Z,12.10
2023-10-24T23:39:28.023Z,12.06
2023-10-24T23:41:54.883Z,12.04
2023-10-24T23:44:21.533Z,12.01
2023-10-24T23:46:48.549Z,12.01
2023-10-24T23:49:15.241Z,11.98
2023-10-24T23:51:42.189Z,11.95
2023-10-24T23:54:11.253Z,11.91
2023-10-24T23:56:39.805Z,11.89
2023-10-24T23:59:06.482Z,11.84
